sensor_id;sensor_type;location;lat;lon;timestamp;temperature;humidity
36690;DHT22;22676;51.120;3.702;2023-04-23T00:00:31;25.30;41.80
36690;DHT22;22676;51.120;3.702;2023-04-23T00:02:57;25.20;41.90
36690;DHT22;22676;51.120;3.702;2023-04-23T00:05:25;25.10;42.00
36690;DHT22;22676;51.120;3.702;2023-04-23T00:07:51;25.20;42.00
36690;DHT22;22676;51.120;3.702;2023-04-23T00:10:17;25.20;41.90
36690;DHT22;22676;51.120;3.702;2023-04-23T00:12:43;25.20;42.10
36690;DHT22;22676;51.120;3.702;2023-04-23T00:15:10;25.10;42.20
36690;DHT22;22676;51.120;3.702;2023-04-23T00:17:35;25.20;42.00
36690;DHT22;22676;51.120;3.702;2023-04-23T00:20:01;25.30;41.60
36690;DHT22;22676;51.120;3.702;2023-04-23T00:22:27;25.30;41.20
36690;DHT22;22676;51.120;3.702;2023-04-23T00:24:52;25.40;41.00
36690;DHT22;22676;51.120;3.702;2023-04-23T00:27:18;25.40;41.20
36690;DHT22;22676;51.120;3.702;2023-04-23T00:29:45;25.40;41.20
36690;DHT22;22676;51.120;3.702;2023-04-23T00:32:11;25.40;41.20
36690;DHT22;22676;51.120;3.702;2023-04-23T00:34:36;25.30;41.30
36690;DHT22;22676;51.120;3.702;2023-04-23T00:37:02;25.20;41.40
36690;DHT22;22676;51.120;3.702;2023-04-23T00:39:31;25.20;41.40
36690;DHT22;22676;51.120;3.702;2023-04-23T00:41:56;25.30;41.60
36690;DHT22;22676;51.120;3.702;2023-04-23T00:44:31;25.00;41.70
36690;DHT22;22676;51.120;3.702;2023-04-23T00:46:56;25.00;42.00
36690;DHT22;22676;51.120;3.702;2023-04-23T00:49:23;24.80;42.10
36690;DHT22;22676;51.120;3.702;2023-04-23T00:51:49;25.00;42.00
36690;DHT22;22676;51.120;3.702;2023-04-23T00:54:14;24.90;42.10
36690;DHT22;22676;51.120;3.702;2023-04-23T00:56:40;24.90;42.20
36690;DHT22;22676;51.120;3.702;2023-04-23T00:59:06;24.90;42.00
36690;DHT22;22676;51.120;3.702;2023-04-23T01:01:31;25.00;41.90
36690;DHT22;22676;51.120;3.702;2023-04-23T01:03:57;25.00;41.90
36690;DHT22;22676;51.120;3.702;2023-04-23T01:06:23;24.90;42.00
36690;DHT22;22676;51.120;3.702;2023-04-23T01:08:49;24.90;42.10
36690;DHT22;22676;51.120;3.702;2023-04-23T01:11:15;24.90;42.10
36690;DHT22;22676;51.120;3.702;2023-04-23T01:13:41;24.90;42.10
36690;DHT22;22676;51.120;3.702;2023-04-23T01:16:09;24.70;42.20
36690;DHT22;22676;51.120;3.702;2023-04-23T01:18:35;24.70;42.40
36690;DHT22;22676;51.120;3.702;2023-04-23T01:21:03;24.80;41.80
36690;DHT22;22676;51.120;3.702;2023-04-23T01:23:29;25.00;41.40
36690;DHT22;22676;51.120;3.702;2023-04-23T01:25:55;25.00;41.30
36690;DHT22;22676;51.120;3.702;2023-04-23T01:28:21;25.00;41.20
36690;DHT22;22676;51.120;3.702;2023-04-23T01:30:46;25.00;41.30
36690;DHT22;22676;51.120;3.702;2023-04-23T01:33:12;25.00;41.50
36690;DHT22;22676;51.120;3.702;2023-04-23T01:35:38;25.00;41.50
36690;DHT22;22676;51.120;3.702;2023-04-23T01:38:05;25.00;41.60
36690;DHT22;22676;51.120;3.702;2023-04-23T01:40:31;25.20;41.30
36690;DHT22;22676;51.120;3.702;2023-04-23T01:42:57;25.20;41.30
36690;DHT22;22676;51.120;3.702;2023-04-23T01:45:29;25.20;41.20
36690;DHT22;22676;51.120;3.702;2023-04-23T01:47:55;25.20;41.10
36690;DHT22;22676;51.120;3.702;2023-04-23T01:50:21;25.20;41.20
36690;DHT22;22676;51.120;3.702;2023-04-23T01:52:49;25.20;41.20
36690;DHT22;22676;51.120;3.702;2023-04-23T01:55:18;25.20;41.20
36690;DHT22;22676;51.120;3.702;2023-04-23T01:57:46;25.10;41.30
36690;DHT22;22676;51.120;3.702;2023-04-23T02:00:15;25.00;41.50
36690;DHT22;22676;51.120;3.702;2023-04-23T02:02:42;24.90;41.70
36690;DHT22;22676;51.120;3.702;2023-04-23T02:05:09;24.80;41.80
36690;DHT22;22676;51.120;3.702;2023-04-23T02:07:35;24.80;41.90
36690;DHT22;22676;51.120;3.702;2023-04-23T02:10:01;24.80;42.00
36690;DHT22;22676;51.120;3.702;2023-04-23T02:12:27;24.70;42.00
36690;DHT22;22676;51.120;3.702;2023-04-23T02:14:52;24.60;42.70
36690;DHT22;22676;51.120;3.702;2023-04-23T02:17:21;24.50;42.20
36690;DHT22;22676;51.120;3.702;2023-04-23T02:19:49;24.50;42.10
36690;DHT22;22676;51.120;3.702;2023-04-23T02:22:15;24.50;41.70
36690;DHT22;22676;51.120;3.702;2023-04-23T02:24:41;24.40;41.80
36690;DHT22;22676;51.120;3.702;2023-04-23T02:27:07;24.40;42.10
36690;DHT22;22676;51.120;3.702;2023-04-23T02:29:33;24.40;42.10
36690;DHT22;22676;51.120;3.702;2023-04-23T02:31:58;24.20;42.40
36690;DHT22;22676;51.120;3.702;2023-04-23T02:34:24;24.20;42.40
36690;DHT22;22676;51.120;3.702;2023-04-23T02:36:49;24.20;42.50
36690;DHT22;22676;51.120;3.702;2023-04-23T02:39:15;24.10;42.50
36690;DHT22;22676;51.120;3.702;2023-04-23T02:41:41;24.10;42.70
36690;DHT22;22676;51.120;3.702;2023-04-23T02:44:06;24.00;42.80
36690;DHT22;22676;51.120;3.702;2023-04-23T02:46:32;24.10;42.70
36690;DHT22;22676;51.120;3.702;2023-04-23T02:48:58;24.00;42.90
36690;DHT22;22676;51.120;3.702;2023-04-23T02:51:23;24.00;42.80
36690;DHT22;22676;51.120;3.702;2023-04-23T02:53:49;24.00;42.90
36690;DHT22;22676;51.120;3.702;2023-04-23T02:56:14;24.00;42.80
36690;DHT22;22676;51.120;3.702;2023-04-23T02:58:40;24.00;42.80
36690;DHT22;22676;51.120;3.702;2023-04-23T03:01:06;24.00;42.70
36690;DHT22;22676;51.120;3.702;2023-04-23T03:03:32;24.00;42.80
36690;DHT22;22676;51.120;3.702;2023-04-23T03:05:58;23.90;42.90
36690;DHT22;22676;51.120;3.702;2023-04-23T03:08:24;23.80;43.00
36690;DHT22;22676;51.120;3.702;2023-04-23T03:10:49;23.80;43.70
36690;DHT22;22676;51.120;3.702;2023-04-23T03:13:15;23.70;43.30
36690;DHT22;22676;51.120;3.702;2023-04-23T03:15:41;23.70;43.20
36690;DHT22;22676;51.120;3.702;2023-04-23T03:18:06;23.70;43.30
36690;DHT22;22676;51.120;3.702;2023-04-23T03:20:35;23.70;42.80
36690;DHT22;22676;51.120;3.702;2023-04-23T03:23:01;23.70;42.40
36690;DHT22;22676;51.120;3.702;2023-04-23T03:25:27;23.70;42.50
36690;DHT22;22676;51.120;3.702;2023-04-23T03:27:53;23.60;42.70
36690;DHT22;22676;51.120;3.702;2023-04-23T03:30:19;23.70;42.70
36690;DHT22;22676;51.120;3.702;2023-04-23T03:32:44;23.60;42.90
36690;DHT22;22676;51.120;3.702;2023-04-23T03:35:10;23.60;43.10
36690;DHT22;22676;51.120;3.702;2023-04-23T03:37:35;23.50;43.10
36690;DHT22;22676;51.120;3.702;2023-04-23T03:40:01;23.50;43.30
36690;DHT22;22676;51.120;3.702;2023-04-23T03:42:32;23.40;43.40
36690;DHT22;22676;51.120;3.702;2023-04-23T03:44:58;23.30;43.40
36690;DHT22;22676;51.120;3.702;2023-04-23T03:47:24;23.30;43.60
36690;DHT22;22676;51.120;3.702;2023-04-23T03:49:50;23.30;43.70
36690;DHT22;22676;51.120;3.702;2023-04-23T03:52:15;23.20;43.80
36690;DHT22;22676;51.120;3.702;2023-04-23T03:54:41;23.20;43.80
36690;DHT22;22676;51.120;3.702;2023-04-23T03:57:07;23.20;43.80
36690;DHT22;22676;51.120;3.702;2023-04-23T03:59:33;23.20;43.80
36690;DHT22;22676;51.120;3.702;2023-04-23T04:01:58;23.10;43.80
36690;DHT22;22676;51.120;3.702;2023-04-23T04:04:24;23.10;43.70
36690;DHT22;22676;51.120;3.702;2023-04-23T04:06:49;23.10;43.80
36690;DHT22;22676;51.120;3.702;2023-04-23T04:09:15;23.10;43.80
36690;DHT22;22676;51.120;3.702;2023-04-23T04:11:41;23.00;43.90
36690;DHT22;22676;51.120;3.702;2023-04-23T04:14:07;23.20;43.70
36690;DHT22;22676;51.120;3.702;2023-04-23T04:16:32;23.20;43.70
36690;DHT22;22676;51.120;3.702;2023-04-23T04:18:58;23.20;43.30
36690;DHT22;22676;51.120;3.702;2023-04-23T04:21:23;23.40;42.90
36690;DHT22;22676;51.120;3.702;2023-04-23T04:23:49;23.40;42.50
36690;DHT22;22676;51.120;3.702;2023-04-23T04:26:15;23.40;42.70
36690;DHT22;22676;51.120;3.702;2023-04-23T04:28:40;23.40;42.70
36690;DHT22;22676;51.120;3.702;2023-04-23T04:31:06;23.40;42.70
36690;DHT22;22676;51.120;3.702;2023-04-23T04:33:32;23.30;43.00
36690;DHT22;22676;51.120;3.702;2023-04-23T04:35:59;23.20;43.10
36690;DHT22;22676;51.120;3.702;2023-04-23T04:38:25;23.10;43.20
36690;DHT22;22676;51.120;3.702;2023-04-23T04:40:55;23.00;43.40
36690;DHT22;22676;51.120;3.702;2023-04-23T04:43:24;23.00;43.50
36690;DHT22;22676;51.120;3.702;2023-04-23T04:45:50;23.00;43.40
36690;DHT22;22676;51.120;3.702;2023-04-23T04:48:16;23.10;43.40
36690;DHT22;22676;51.120;3.702;2023-04-23T04:50:42;23.00;43.40
36690;DHT22;22676;51.120;3.702;2023-04-23T04:53:07;23.20;43.30
36690;DHT22;22676;51.120;3.702;2023-04-23T04:55:33;23.00;43.30
36690;DHT22;22676;51.120;3.702;2023-04-23T04:57:58;22.90;43.60
36690;DHT22;22676;51.120;3.702;2023-04-23T05:00:25;22.90;44.20
36690;DHT22;22676;51.120;3.702;2023-04-23T05:02:53;22.90;43.50
36690;DHT22;22676;51.120;3.702;2023-04-23T05:05:19;22.90;43.60
36690;DHT22;22676;51.120;3.702;2023-04-23T05:07:45;22.90;43.50
36690;DHT22;22676;51.120;3.702;2023-04-23T05:10:11;22.90;43.60
36690;DHT22;22676;51.120;3.702;2023-04-23T05:12:37;22.90;43.60
36690;DHT22;22676;51.120;3.702;2023-04-23T05:15:06;22.70;43.90
36690;DHT22;22676;51.120;3.702;2023-04-23T05:17:32;22.70;44.10
36690;DHT22;22676;51.120;3.702;2023-04-23T05:19:58;23.10;43.10
36690;DHT22;22676;51.120;3.702;2023-04-23T05:22:25;23.40;42.20
36690;DHT22;22676;51.120;3.702;2023-04-23T05:24:50;23.50;42.10
36690;DHT22;22676;51.120;3.702;2023-04-23T05:27:16;23.30;42.50
36690;DHT22;22676;51.120;3.702;2023-04-23T05:29:41;23.20;42.50
36690;DHT22;22676;51.120;3.702;2023-04-23T05:32:07;23.40;42.50
36690;DHT22;22676;51.120;3.702;2023-04-23T05:34:32;23.50;42.30
36690;DHT22;22676;51.120;3.702;2023-04-23T05:36:58;23.60;42.30
36690;DHT22;22676;51.120;3.702;2023-04-23T05:39:23;23.50;42.30
36690;DHT22;22676;51.120;3.702;2023-04-23T05:41:49;23.60;42.10
36690;DHT22;22676;51.120;3.702;2023-04-23T05:44:14;23.60;42.20
36690;DHT22;22676;51.120;3.702;2023-04-23T05:46:40;23.70;42.10
36690;DHT22;22676;51.120;3.702;2023-04-23T05:49:06;23.80;41.90
36690;DHT22;22676;51.120;3.702;2023-04-23T05:51:31;23.90;41.90
36690;DHT22;22676;51.120;3.702;2023-04-23T05:53:57;24.00;41.70
36690;DHT22;22676;51.120;3.702;2023-04-23T05:56:22;24.10;41.60
36690;DHT22;22676;51.120;3.702;2023-04-23T05:58:48;24.10;41.50
36690;DHT22;22676;51.120;3.702;2023-04-23T06:01:13;24.30;41.30
36690;DHT22;22676;51.120;3.702;2023-04-23T06:03:39;24.40;41.20
36690;DHT22;22676;51.120;3.702;2023-04-23T06:06:10;24.40;41.30
36690;DHT22;22676;51.120;3.702;2023-04-23T06:08:35;24.40;41.30
36690;DHT22;22676;51.120;3.702;2023-04-23T06:11:01;24.50;41.20
36690;DHT22;22676;51.120;3.702;2023-04-23T06:13:26;24.50;41.20
36690;DHT22;22676;51.120;3.702;2023-04-23T06:15:52;24.60;41.10
36690;DHT22;22676;51.120;3.702;2023-04-23T06:18:18;24.70;41.00
36690;DHT22;22676;51.120;3.702;2023-04-23T06:20:43;24.80;40.50
36690;DHT22;22676;51.120;3.702;2023-04-23T06:23:11;24.90;40.20
36690;DHT22;22676;51.120;3.702;2023-04-23T06:25:36;24.80;40.50
36690;DHT22;22676;51.120;3.702;2023-04-23T06:28:02;24.80;40.80
36690;DHT22;22676;51.120;3.702;2023-04-23T06:30:28;24.80;40.80
36690;DHT22;22676;51.120;3.702;2023-04-23T06:32:53;24.80;40.90
36690;DHT22;22676;51.120;3.702;2023-04-23T06:35:19;24.80;40.90
36690;DHT22;22676;51.120;3.702;2023-04-23T06:37:44;24.90;41.00
36690;DHT22;22676;51.120;3.702;2023-04-23T06:40:10;24.90;41.00
36690;DHT22;22676;51.120;3.702;2023-04-23T06:42:36;24.90;41.00
36690;DHT22;22676;51.120;3.702;2023-04-23T06:45:01;25.00;41.10
36690;DHT22;22676;51.120;3.702;2023-04-23T06:47:29;25.10;41.10
36690;DHT22;22676;51.120;3.702;2023-04-23T06:49:55;25.20;41.10
36690;DHT22;22676;51.120;3.702;2023-04-23T06:52:21;25.20;41.20
36690;DHT22;22676;51.120;3.702;2023-04-23T06:54:46;25.30;41.10
36690;DHT22;22676;51.120;3.702;2023-04-23T06:57:12;25.30;41.00
36690;DHT22;22676;51.120;3.702;2023-04-23T06:59:37;25.40;41.00
36690;DHT22;22676;51.120;3.702;2023-04-23T07:02:03;25.40;40.90
36690;DHT22;22676;51.120;3.702;2023-04-23T07:04:28;25.60;40.40
36690;DHT22;22676;51.120;3.702;2023-04-23T07:06:54;25.70;40.20
36690;DHT22;22676;51.120;3.702;2023-04-23T07:09:19;25.80;39.90
36690;DHT22;22676;51.120;3.702;2023-04-23T07:11:45;25.90;39.70
36690;DHT22;22676;51.120;3.702;2023-04-23T07:14:10;26.00;39.50
36690;DHT22;22676;51.120;3.702;2023-04-23T07:16:36;26.00;39.50
36690;DHT22;22676;51.120;3.702;2023-04-23T07:19:01;26.00;39.60
36690;DHT22;22676;51.120;3.702;2023-04-23T07:21:27;26.00;39.70
36690;DHT22;22676;51.120;3.702;2023-04-23T07:23:54;26.00;39.60
36690;DHT22;22676;51.120;3.702;2023-04-23T07:26:20;26.00;39.80
36690;DHT22;22676;51.120;3.702;2023-04-23T07:28:46;25.90;40.00
36690;DHT22;22676;51.120;3.702;2023-04-23T07:31:12;25.80;40.10
36690;DHT22;22676;51.120;3.702;2023-04-23T07:33:38;25.70;40.00
36690;DHT22;22676;51.120;3.702;2023-04-23T07:36:04;25.60;40.10
36690;DHT22;22676;51.120;3.702;2023-04-23T07:38:29;25.60;40.10
36690;DHT22;22676;51.120;3.702;2023-04-23T07:40:55;25.50;40.20
36690;DHT22;22676;51.120;3.702;2023-04-23T07:43:21;25.50;40.10
36690;DHT22;22676;51.120;3.702;2023-04-23T07:45:52;25.50;40.30
36690;DHT22;22676;51.120;3.702;2023-04-23T07:48:20;25.30;40.70
36690;DHT22;22676;51.120;3.702;2023-04-23T07:50:45;25.10;40.90
36690;DHT22;22676;51.120;3.702;2023-04-23T07:53:11;25.00;41.30
36690;DHT22;22676;51.120;3.702;2023-04-23T07:55:37;25.00;41.70
36690;DHT22;22676;51.120;3.702;2023-04-23T07:58:02;24.90;42.10
36690;DHT22;22676;51.120;3.702;2023-04-23T08:00:28;24.80;42.10
36690;DHT22;22676;51.120;3.702;2023-04-23T08:02:53;24.70;42.40
36690;DHT22;22676;51.120;3.702;2023-04-23T08:05:19;24.70;42.60
36690;DHT22;22676;51.120;3.702;2023-04-23T08:07:44;24.70;42.60
36690;DHT22;22676;51.120;3.702;2023-04-23T08:10:10;24.60;43.10
36690;DHT22;22676;51.120;3.702;2023-04-23T08:12:35;24.50;43.10
36690;DHT22;22676;51.120;3.702;2023-04-23T08:15:01;24.50;43.20
36690;DHT22;22676;51.120;3.702;2023-04-23T08:17:27;24.70;42.70
36690;DHT22;22676;51.120;3.702;2023-04-23T08:19:53;24.70;42.70
36690;DHT22;22676;51.120;3.702;2023-04-23T08:22:18;24.70;42.80
36690;DHT22;22676;51.120;3.702;2023-04-23T08:24:44;24.80;42.60
36690;DHT22;22676;51.120;3.702;2023-04-23T08:27:10;24.60;42.80
36690;DHT22;22676;51.120;3.702;2023-04-23T08:29:36;24.60;42.80
36690;DHT22;22676;51.120;3.702;2023-04-23T08:32:01;24.50;42.80
36690;DHT22;22676;51.120;3.702;2023-04-23T08:34:27;24.60;43.20
36690;DHT22;22676;51.120;3.702;2023-04-23T08:36:52;24.60;43.20
36690;DHT22;22676;51.120;3.702;2023-04-23T08:39:18;24.50;43.10
36690;DHT22;22676;51.120;3.702;2023-04-23T08:41:43;24.50;43.60
36690;DHT22;22676;51.120;3.702;2023-04-23T08:44:17;24.50;43.50
36690;DHT22;22676;51.120;3.702;2023-04-23T08:46:43;24.50;44.20
36690;DHT22;22676;51.120;3.702;2023-04-23T08:49:11;24.50;43.60
36690;DHT22;22676;51.120;3.702;2023-04-23T08:51:37;24.50;43.80
36690;DHT22;22676;51.120;3.702;2023-04-23T08:54:07;24.70;43.60
36690;DHT22;22676;51.120;3.702;2023-04-23T08:56:34;24.60;43.70
36690;DHT22;22676;51.120;3.702;2023-04-23T08:59:01;24.60;43.60
36690;DHT22;22676;51.120;3.702;2023-04-23T09:01:28;24.60;43.50
36690;DHT22;22676;51.120;3.702;2023-04-23T09:03:54;24.50;43.40
36690;DHT22;22676;51.120;3.702;2023-04-23T09:06:19;24.50;43.50
36690;DHT22;22676;51.120;3.702;2023-04-23T09:08:45;24.40;43.80
36690;DHT22;22676;51.120;3.702;2023-04-23T09:11:11;24.60;43.80
36690;DHT22;22676;51.120;3.702;2023-04-23T09:13:36;24.70;43.60
36690;DHT22;22676;51.120;3.702;2023-04-23T09:16:03;24.60;43.90
36690;DHT22;22676;51.120;3.702;2023-04-23T09:18:29;24.70;44.00
36690;DHT22;22676;51.120;3.702;2023-04-23T09:20:55;24.50;44.10
36690;DHT22;22676;51.120;3.702;2023-04-23T09:23:20;24.40;45.20
36690;DHT22;22676;51.120;3.702;2023-04-23T09:25:47;24.30;44.60
36690;DHT22;22676;51.120;3.702;2023-04-23T09:28:12;24.30;45.20
36690;DHT22;22676;51.120;3.702;2023-04-23T09:30:43;24.30;45.20
36690;DHT22;22676;51.120;3.702;2023-04-23T09:33:12;24.30;45.30
36690;DHT22;22676;51.120;3.702;2023-04-23T09:35:38;24.30;45.40
36690;DHT22;22676;51.120;3.702;2023-04-23T09:38:03;24.40;45.40
36690;DHT22;22676;51.120;3.702;2023-04-23T09:40:32;24.30;45.70
36690;DHT22;22676;51.120;3.702;2023-04-23T09:42:58;24.30;46.10
36690;DHT22;22676;51.120;3.702;2023-04-23T09:45:24;24.40;46.20
36690;DHT22;22676;51.120;3.702;2023-04-23T09:47:51;24.40;46.00
36690;DHT22;22676;51.120;3.702;2023-04-23T09:50:17;24.30;46.20
36690;DHT22;22676;51.120;3.702;2023-04-23T09:52:42;24.20;46.30
36690;DHT22;22676;51.120;3.702;2023-04-23T09:55:08;24.20;46.30
36690;DHT22;22676;51.120;3.702;2023-04-23T09:57:40;24.20;46.50
36690;DHT22;22676;51.120;3.702;2023-04-23T10:00:16;24.20;46.70
36690;DHT22;22676;51.120;3.702;2023-04-23T10:02:49;24.20;46.40
36690;DHT22;22676;51.120;3.702;2023-04-23T10:05:16;24.30;46.70
36690;DHT22;22676;51.120;3.702;2023-04-23T10:07:43;24.50;46.70
36690;DHT22;22676;51.120;3.702;2023-04-23T10:10:10;24.40;46.30
36690;DHT22;22676;51.120;3.702;2023-04-23T10:12:35;24.30;46.70
36690;DHT22;22676;51.120;3.702;2023-04-23T10:15:02;24.30;46.80
36690;DHT22;22676;51.120;3.702;2023-04-23T10:17:29;24.20;47.10
36690;DHT22;22676;51.120;3.702;2023-04-23T10:19:55;24.20;46.70
36690;DHT22;22676;51.120;3.702;2023-04-23T10:22:22;24.30;46.70
36690;DHT22;22676;51.120;3.702;2023-04-23T10:24:51;24.40;46.10
36690;DHT22;22676;51.120;3.702;2023-04-23T10:27:17;24.40;46.40
36690;DHT22;22676;51.120;3.702;2023-04-23T10:29:44;24.30;46.00
36690;DHT22;22676;51.120;3.702;2023-04-23T10:32:11;24.20;46.20
36690;DHT22;22676;51.120;3.702;2023-04-23T10:34:37;24.30;46.50
36690;DHT22;22676;51.120;3.702;2023-04-23T10:37:03;24.30;45.80
36690;DHT22;22676;51.120;3.702;2023-04-23T10:39:31;24.20;45.80
36690;DHT22;22676;51.120;3.702;2023-04-23T10:41:57;24.20;45.70
36690;DHT22;22676;51.120;3.702;2023-04-23T10:44:30;24.10;45.90
36690;DHT22;22676;51.120;3.702;2023-04-23T10:46:57;24.10;45.90
36690;DHT22;22676;51.120;3.702;2023-04-23T10:49:28;24.10;45.70
36690;DHT22;22676;51.120;3.702;2023-04-23T10:51:58;24.00;45.70
36690;DHT22;22676;51.120;3.702;2023-04-23T10:54:27;24.00;46.00
36690;DHT22;22676;51.120;3.702;2023-04-23T10:56:56;24.00;46.00
36690;DHT22;22676;51.120;3.702;2023-04-23T10:59:22;24.10;45.60
36690;DHT22;22676;51.120;3.702;2023-04-23T11:01:51;24.00;45.80
36690;DHT22;22676;51.120;3.702;2023-04-23T11:04:26;24.00;45.60
36690;DHT22;22676;51.120;3.702;2023-04-23T11:06:53;24.00;45.50
36690;DHT22;22676;51.120;3.702;2023-04-23T11:11:58;23.90;45.70
36690;DHT22;22676;51.120;3.702;2023-04-23T11:14:40;23.90;45.60
36690;DHT22;22676;51.120;3.702;2023-04-23T11:17:06;23.90;45.60
36690;DHT22;22676;51.120;3.702;2023-04-23T11:19:38;23.90;45.30
36690;DHT22;22676;51.120;3.702;2023-04-23T11:22:04;24.00;45.40
36690;DHT22;22676;51.120;3.702;2023-04-23T11:24:39;24.20;45.20
36690;DHT22;22676;51.120;3.702;2023-04-23T11:27:15;24.30;44.70
36690;DHT22;22676;51.120;3.702;2023-04-23T11:29:43;24.20;44.70
36690;DHT22;22676;51.120;3.702;2023-04-23T11:32:09;24.30;45.20
36690;DHT22;22676;51.120;3.702;2023-04-23T11:34:40;24.40;45.80
36690;DHT22;22676;51.120;3.702;2023-04-23T11:37:10;24.40;46.10
36690;DHT22;22676;51.120;3.702;2023-04-23T11:39:36;24.50;46.60
36690;DHT22;22676;51.120;3.702;2023-04-23T11:42:02;24.50;46.70
36690;DHT22;22676;51.120;3.702;2023-04-23T11:44:29;24.60;46.80
36690;DHT22;22676;51.120;3.702;2023-04-23T11:46:58;24.80;46.50
36690;DHT22;22676;51.120;3.702;2023-04-23T11:49:25;24.90;46.80
36690;DHT22;22676;51.120;3.702;2023-04-23T11:51:50;25.00;46.70
36690;DHT22;22676;51.120;3.702;2023-04-23T11:54:16;25.10;46.40
36690;DHT22;22676;51.120;3.702;2023-04-23T11:56:43;25.20;46.40
36690;DHT22;22676;51.120;3.702;2023-04-23T11:59:09;25.20;46.10
36690;DHT22;22676;51.120;3.702;2023-04-23T12:01:41;25.40;46.00
36690;DHT22;22676;51.120;3.702;2023-04-23T12:04:10;25.40;45.80
36690;DHT22;22676;51.120;3.702;2023-04-23T12:06:37;25.50;45.60
36690;DHT22;22676;51.120;3.702;2023-04-23T12:09:02;25.60;45.90
36690;DHT22;22676;51.120;3.702;2023-04-23T12:11:28;25.70;44.80
36690;DHT22;22676;51.120;3.702;2023-04-23T12:13:53;25.70;44.60
36690;DHT22;22676;51.120;3.702;2023-04-23T12:16:32;25.80;44.00
36690;DHT22;22676;51.120;3.702;2023-04-23T12:18:58;25.80;43.80
36690;DHT22;22676;51.120;3.702;2023-04-23T12:21:24;25.80;43.60
36690;DHT22;22676;51.120;3.702;2023-04-23T12:23:52;25.70;44.40
36690;DHT22;22676;51.120;3.702;2023-04-23T12:26:18;25.70;44.70
36690;DHT22;22676;51.120;3.702;2023-04-23T12:28:45;25.80;44.80
36690;DHT22;22676;51.120;3.702;2023-04-23T12:31:17;25.70;45.00
36690;DHT22;22676;51.120;3.702;2023-04-23T12:33:43;25.70;44.90
36690;DHT22;22676;51.120;3.702;2023-04-23T12:36:10;25.80;45.10
36690;DHT22;22676;51.120;3.702;2023-04-23T12:38:35;25.90;45.30
36690;DHT22;22676;51.120;3.702;2023-04-23T12:41:03;25.80;45.20
36690;DHT22;22676;51.120;3.702;2023-04-23T12:43:29;26.00;45.30
36690;DHT22;22676;51.120;3.702;2023-04-23T12:45:54;26.10;45.40
36690;DHT22;22676;51.120;3.702;2023-04-23T12:48:20;26.20;45.20
36690;DHT22;22676;51.120;3.702;2023-04-23T12:50:46;26.20;45.20
36690;DHT22;22676;51.120;3.702;2023-04-23T12:53:12;26.20;45.10
36690;DHT22;22676;51.120;3.702;2023-04-23T12:55:37;26.10;45.60
36690;DHT22;22676;51.120;3.702;2023-04-23T12:58:08;26.20;45.30
36690;DHT22;22676;51.120;3.702;2023-04-23T13:00:34;26.20;45.40
36690;DHT22;22676;51.120;3.702;2023-04-23T13:03:00;26.30;45.20
36690;DHT22;22676;51.120;3.702;2023-04-23T13:05:25;26.50;45.20
36690;DHT22;22676;51.120;3.702;2023-04-23T13:07:51;26.50;44.90
36690;DHT22;22676;51.120;3.702;2023-04-23T13:10:17;26.50;44.80
36690;DHT22;22676;51.120;3.702;2023-04-23T13:12:43;26.50;45.50
36690;DHT22;22676;51.120;3.702;2023-04-23T13:15:09;26.40;45.00
36690;DHT22;22676;51.120;3.702;2023-04-23T13:17:37;26.40;45.00
36690;DHT22;22676;51.120;3.702;2023-04-23T13:20:02;26.50;44.90
36690;DHT22;22676;51.120;3.702;2023-04-23T13:22:29;26.50;44.90
36690;DHT22;22676;51.120;3.702;2023-04-23T13:24:55;26.50;45.10
36690;DHT22;22676;51.120;3.702;2023-04-23T13:27:21;26.60;44.80
36690;DHT22;22676;51.120;3.702;2023-04-23T13:29:48;26.60;44.90
36690;DHT22;22676;51.120;3.702;2023-04-23T13:32:13;26.50;45.00
36690;DHT22;22676;51.120;3.702;2023-04-23T13:34:40;26.40;45.00
36690;DHT22;22676;51.120;3.702;2023-04-23T13:37:06;26.50;45.20
36690;DHT22;22676;51.120;3.702;2023-04-23T13:39:34;26.40;45.20
36690;DHT22;22676;51.120;3.702;2023-04-23T13:42:00;26.50;45.20
36690;DHT22;22676;51.120;3.702;2023-04-23T13:44:26;26.50;45.10
36690;DHT22;22676;51.120;3.702;2023-04-23T13:46:51;26.50;45.10
36690;DHT22;22676;51.120;3.702;2023-04-23T13:49:17;26.70;45.00
36690;DHT22;22676;51.120;3.702;2023-04-23T13:51:43;26.60;44.50
36690;DHT22;22676;51.120;3.702;2023-04-23T13:54:08;26.70;45.10
36690;DHT22;22676;51.120;3.702;2023-04-23T13:56:34;26.70;44.70
36690;DHT22;22676;51.120;3.702;2023-04-23T13:59:01;26.70;45.00
36690;DHT22;22676;51.120;3.702;2023-04-23T14:01:28;26.60;44.90
36690;DHT22;22676;51.120;3.702;2023-04-23T14:03:54;26.80;44.70
36690;DHT22;22676;51.120;3.702;2023-04-23T14:06:20;26.80;44.80
36690;DHT22;22676;51.120;3.702;2023-04-23T14:08:45;26.90;44.60
36690;DHT22;22676;51.120;3.702;2023-04-23T14:11:11;26.90;44.30
36690;DHT22;22676;51.120;3.702;2023-04-23T14:13:38;26.90;44.10
36690;DHT22;22676;51.120;3.702;2023-04-23T14:16:04;27.00;44.10
36690;DHT22;22676;51.120;3.702;2023-04-23T14:18:30;27.00;44.20
36690;DHT22;22676;51.120;3.702;2023-04-23T14:20:55;26.90;44.10
36690;DHT22;22676;51.120;3.702;2023-04-23T14:25:47;26.90;43.70
36690;DHT22;22676;51.120;3.702;2023-04-23T14:28:32;26.90;43.60
36690;DHT22;22676;51.120;3.702;2023-04-23T14:30:58;26.80;43.60
36690;DHT22;22676;51.120;3.702;2023-04-23T14:33:24;26.90;43.60
36690;DHT22;22676;51.120;3.702;2023-04-23T14:35:50;26.80;43.40
36690;DHT22;22676;51.120;3.702;2023-04-23T14:38:16;26.70;43.30
36690;DHT22;22676;51.120;3.702;2023-04-23T14:40:41;26.80;43.30
36690;DHT22;22676;51.120;3.702;2023-04-23T14:43:07;26.70;43.40
36690;DHT22;22676;51.120;3.702;2023-04-23T14:45:33;26.70;43.50
36690;DHT22;22676;51.120;3.702;2023-04-23T14:47:58;26.80;43.50
36690;DHT22;22676;51.120;3.702;2023-04-23T14:50:24;26.90;43.30
36690;DHT22;22676;51.120;3.702;2023-04-23T14:52:50;26.90;43.10
36690;DHT22;22676;51.120;3.702;2023-04-23T14:55:16;26.90;42.90
36690;DHT22;22676;51.120;3.702;2023-04-23T14:57:42;26.90;43.20
36690;DHT22;22676;51.120;3.702;2023-04-23T15:00:08;26.90;43.10
36690;DHT22;22676;51.120;3.702;2023-04-23T15:02:40;26.90;43.20
36690;DHT22;22676;51.120;3.702;2023-04-23T15:05:06;26.90;43.10
36690;DHT22;22676;51.120;3.702;2023-04-23T15:07:33;26.80;43.40
36690;DHT22;22676;51.120;3.702;2023-04-23T15:09:58;26.90;43.40
36690;DHT22;22676;51.120;3.702;2023-04-23T15:14:55;26.80;43.10
36690;DHT22;22676;51.120;3.702;2023-04-23T15:17:21;26.80;43.10
36690;DHT22;22676;51.120;3.702;2023-04-23T15:19:47;26.90;43.00
36690;DHT22;22676;51.120;3.702;2023-04-23T15:22:12;26.90;43.60
36690;DHT22;22676;51.120;3.702;2023-04-23T15:24:38;26.90;42.80
36690;DHT22;22676;51.120;3.702;2023-04-23T15:27:04;26.80;43.10
36690;DHT22;22676;51.120;3.702;2023-04-23T15:29:29;26.80;43.20
36690;DHT22;22676;51.120;3.702;2023-04-23T15:31:55;26.70;43.40